Walhalla, Texas
Current Conditions -  °F | °C
As of 4:35 PM on Tuesday 21 Oct 2014 (Local Time) from K3T5 Reporting Station
Haze Haze  
Wind Chill: 83°   Ceiling: Unl
Heat Index: 83°   Visibility: 5mi
Dew Point: 53°   Wind: 5mph
Humidity: 36%   Direction: 60°ENE
Pressure: 29.97"   Gusts: NA
Location:  30.0519°N, 96.7569°W
Report Text: K3T5 212135Z AUTO 06004KT 5SM HZ CLR 28/12 A2997 RMK AO2 T02820119
Loading
Personal Weather Stations






























Interactive Weather Map
Tropical Storm Tracking
New forecast layout! Learn more

10-Day Weather Forecast

Advertisements
Track Severe Weather on mobile